Time;durP1;ratioP1;P1;durP2;ratioP2;P2;SDS_P1;SDS_P2;PMS_P1;PMS_P2;Temp;Humidity;BMP_temperature;BMP_pressure;BME280_temperature;BME280_humidity;BME280_pressure;Samples;Min_cycle;Max_cycle;Signal;HPM_P1;HPM_P2
2022/03/05 00:00:20;;;;;;;0.20;0.20;;;;;;;19.87;34.06;101631.09;5153263;27;20054;-33
2022/03/05 00:02:46;;;;;;;0.20;0.20;;;;;;;19.87;34.19;101626.38;5150278;27;20038;-35
2022/03/05 00:05:13;;;;;;;0.20;0.20;;;;;;;19.88;34.09;101618.91;5132259;27;20592;-35
2022/03/05 00:07:39;;;;;;;0.20;0.20;;;;;;;19.87;34.06;101628.31;5150509;27;20045;-34
2022/03/05 00:10:06;;;;;;;0.20;0.20;;;;;;;19.86;34.14;101626.63;5146829;27;20085;-34
2022/03/05 00:12:31;;;;;;;0.20;0.20;;;;;;;19.87;34.03;101628.31;5143569;27;20043;-34
2022/03/05 00:14:57;;;;;;;0.20;0.20;;;;;;;19.86;33.87;101635.78;5136831;27;20561;-35
2022/03/05 00:17:23;;;;;;;0.20;0.20;;;;;;;19.88;33.81;101630.81;5130503;27;20103;-37
2022/03/05 00:19:49;;;;;;;0.20;0.20;;;;;;;19.87;33.93;101631.91;5113168;28;20043;-36
2022/03/05 00:22:14;;;;;;;0.20;0.20;;;;;;;19.87;33.88;101633.84;5131010;27;20047;-38
2022/03/05 00:24:40;;;;;;;0.20;0.20;;;;;;;19.86;33.89;101629.41;5126055;27;20338;-34
2022/03/05 00:27:08;;;;;;;0.20;0.20;;;;;;;19.85;34.13;101636.03;5117530;27;20514;-34
2022/03/05 00:29:34;;;;;;;0.20;0.20;;;;;;;19.85;33.78;101631.34;5127583;27;20072;-34
2022/03/05 00:31:59;;;;;;;0.20;0.20;;;;;;;19.86;33.90;101629.41;5115237;27;20043;-34
2022/03/05 00:34:25;;;;;;;0.10;0.10;;;;;;;19.84;34.08;101635.22;5123380;27;20049;-33
2022/03/05 00:36:51;;;;;;;0.20;0.20;;;;;;;19.87;34.14;101644.91;5120959;27;20044;-35
2022/03/05 00:39:17;;;;;;;0.20;0.20;;;;;;;19.85;33.84;101641.56;5121949;27;20047;-35
2022/03/05 00:41:43;;;;;;;0.20;0.20;;;;;;;19.85;33.84;101638.81;5120969;27;20042;-37
2022/03/05 00:44:09;;;;;;;0.10;0.10;;;;;;;19.86;33.91;101637.69;5119993;27;20386;-36
2022/03/05 00:46:34;;;;;;;0.10;0.10;;;;;;;19.84;34.13;101637.97;5120195;27;20070;-36
2022/03/05 00:49:00;;;;;;;0.20;0.20;;;;;;;19.84;34.04;101642.66;5121710;27;20068;-35
2022/03/05 00:51:26;;;;;;;0.20;0.20;;;;;;;19.84;33.89;101637.13;5114678;27;20091;-34
2022/03/05 00:53:52;;;;;;;0.20;0.20;;;;;;;19.84;34.07;101635.22;5102131;28;20043;-33
2022/03/05 00:56:17;;;;;;;0.20;0.20;;;;;;;19.85;34.05;101631.34;5119734;27;20448;-35
2022/03/05 00:58:43;;;;;;;0.20;0.20;;;;;;;19.85;33.87;101645.16;5125002;27;20058;-34
2022/03/05 01:01:09;;;;;;;0.20;0.20;;;;;;;19.84;34.13;101637.97;5112183;27;20398;-33
2022/03/05 01:03:35;;;;;;;0.10;0.10;;;;;;;19.84;34.01;101637.13;5121293;27;20176;-34
2022/03/05 01:06:00;;;;;;;0.20;0.20;;;;;;;19.82;34.37;101637.41;5119858;27;20355;-33
2022/03/05 01:08:26;;;;;;;0.20;0.20;;;;;;;19.83;34.01;101630.78;5121048;27;20042;-33
2022/03/05 01:10:52;;;;;;;0.20;0.20;;;;;;;19.83;33.96;101629.97;5097807;28;20493;-33
2022/03/05 01:13:18;;;;;;;0.20;0.20;;;;;;;19.83;34.08;101627.19;5115530;27;20130;-33
2022/03/05 06:51:41;;;;;;;0.20;0.20;;;;;;;19.60;34.61;101653.25;5108233;27;20108;-33
2022/03/05 06:54:06;;;;;;;0.20;0.20;;;;;;;19.59;34.43;101657.94;5114659;28;20055;-35
2022/03/05 06:56:32;;;;;;;0.22;0.22;;;;;;;19.58;34.49;101656.28;5118026;27;20048;-35
2022/03/05 06:58:57;;;;;;;0.20;0.20;;;;;;;19.60;34.34;101661.53;5118786;27;20397;-35
2022/03/05 07:01:23;;;;;;;0.20;0.20;;;;;;;19.60;34.48;101659.59;5119460;27;20477;-35
2022/03/05 07:03:49;;;;;;;0.20;0.20;;;;;;;19.60;34.48;101662.38;5112394;27;20047;-31
2022/03/05 07:06:15;;;;;;;0.20;0.20;;;;;;;19.59;34.51;101663.47;5093822;28;20050;-37
2022/03/05 07:08:41;;;;;;;0.20;0.20;;;;;;;19.59;34.61;101671.78;5119653;27;20089;-34
2022/03/05 07:11:07;;;;;;;0.20;0.20;;;;;;;19.61;34.51;101666.84;5117300;27;20556;-35
2022/03/05 07:13:34;;;;;;;0.20;0.20;;;;;;;19.61;34.68;101674.31;5114349;27;20536;-34
2022/03/05 07:16:00;;;;;;;0.20;0.20;;;;;;;19.62;34.35;101679.56;5112764;27;20183;-36
2022/03/05 07:18:26;;;;;;;0.20;0.20;;;;;;;19.59;34.48;101668.19;5100145;28;20091;-34
2022/03/05 07:20:51;;;;;;;0.20;0.20;;;;;;;19.60;34.37;101673.44;5093446;28;20320;-36
2022/03/05 07:23:17;;;;;;;0.20;0.20;;;;;;;19.58;34.42;101678.41;5114369;27;20128;-34
2022/03/05 07:25:43;;;;;;;0.30;0.30;;;;;;;19.60;34.78;101669.84;5098383;28;20078;-33
2022/03/05 07:28:10;;;;;;;0.20;0.20;;;;;;;19.58;34.51;101672.88;5110994;27;20043;-34
2022/03/05 07:30:37;;;;;;;0.20;0.20;;;;;;;19.60;34.47;101678.13;5115897;27;20051;-33
2022/03/05 07:33:03;;;;;;;0.20;0.20;;;;;;;19.58;34.38;101677.56;5098189;28;20098;-35
2022/03/05 07:35:29;;;;;;;0.20;0.20;;;;;;;19.58;34.41;101680.34;5100263;28;20567;-31
2022/03/05 07:37:54;;;;;;;0.20;0.20;;;;;;;19.59;34.55;101677.28;5121912;27;20039;-37
2022/03/05 07:40:20;;;;;;;0.20;0.20;;;;;;;19.57;34.31;101682.28;5104444;28;20466;-33
2022/03/05 07:42:46;;;;;;;0.20;0.20;;;;;;;19.59;34.47;101685.59;5104749;28;20177;-36
2022/03/05 07:45:12;;;;;;;0.20;0.20;;;;;;;19.58;34.28;101681.16;5121061;27;20049;-34
2022/03/05 07:47:37;;;;;;;0.20;0.20;;;;;;;19.58;34.68;101694.97;5122110;27;20459;-35
2022/03/05 07:50:04;;;;;;;0.20;0.20;;;;;;;19.56;34.42;101691.66;5120690;27;20137;-37
2022/03/05 07:52:30;;;;;;;0.20;0.20;;;;;;;19.60;34.29;101697.47;5101483;28;20475;-34
2022/03/05 07:54:56;;;;;;;0.20;0.20;;;;;;;19.59;34.40;101693.03;5117459;27;20039;-35
2022/03/05 07:57:21;;;;;;;0.20;0.20;;;;;;;19.56;34.54;101697.19;5118080;28;20493;-31
2022/03/05 07:59:47;;;;;;;0.20;0.20;;;;;;;19.56;34.44;101691.66;5121202;27;20071;-36
2022/03/05 08:02:33;;;;;;;0.20;0.20;;;;;;;19.58;34.38;101696.91;5105897;27;21107;-32
2022/03/05 08:04:59;;;;;;;0.20;0.20;;;;;;;19.57;34.63;101698.03;5121657;27;20434;-31
2022/03/05 08:07:28;;;;;;;0.20;0.20;;;;;;;19.55;34.76;101698.25;5119407;28;20043;-33
2022/03/05 08:09:54;;;;;;;0.20;0.20;;;;;;;19.58;34.60;101705.19;5120940;27;20050;-34
2022/03/05 08:12:20;;;;;;;0.20;0.20;;;;;;;19.58;34.42;101700.50;5116112;28;20051;-33
2022/03/05 08:14:45;;;;;;;0.20;0.20;;;;;;;19.58;34.39;101692.22;5116907;27;20502;-34
2022/03/05 08:17:12;;;;;;;0.20;0.20;;;;;;;19.58;34.36;101694.97;5123459;27;20427;-34
2022/03/05 08:19:37;;;;;;;0.20;0.20;;;;;;;19.55;34.69;101704.63;5117591;27;20100;-37
2022/03/05 08:22:19;;;;;;;0.20;0.20;;;;;;;19.56;34.48;101711.00;5119733;27;20060;-35
2022/03/05 08:24:44;;;;;;;0.20;0.20;;;;;;;19.57;34.62;101714.59;5120288;28;20051;-33
2022/03/05 08:27:10;;;;;;;0.20;0.20;;;;;;;19.55;34.47;101710.13;5120772;27;20039;-32
2022/03/05 08:29:36;;;;;;;0.20;0.20;;;;;;;19.55;34.54;101717.59;5116257;27;20610;-38
2022/03/05 08:32:02;;;;;;;0.20;0.20;;;;;;;19.56;34.33;101708.25;5121232;27;20103;-34
2022/03/05 08:34:27;;;;;;;0.20;0.20;;;;;;;19.55;34.53;101712.06;5116548;27;20105;-33
2022/03/05 08:36:53;;;;;;;0.20;0.20;;;;;;;19.54;34.53;101705.72;5118747;27;20312;-37
2022/03/05 08:39:19;;;;;;;0.20;0.20;;;;;;;19.54;34.24;101713.19;5124957;27;20043;-37
2022/03/05 08:41:44;;;;;;;0.20;0.20;;;;;;;19.56;34.16;101711.00;5098796;27;20500;-35
2022/03/05 08:44:10;;;;;;;0.30;0.30;;;;;;;19.54;34.32;101711.25;5121151;28;20467;-34
2022/03/05 08:46:36;;;;;;;0.20;0.20;;;;;;;19.55;34.51;101709.31;5117883;27;20154;-32
2022/03/05 08:49:03;;;;;;;0.20;0.20;;;;;;;19.54;34.64;101707.66;5102735;28;20517;-31
2022/03/05 08:51:28;;;;;;;0.20;0.20;;;;;;;19.53;34.39;101711.53;5101587;28;20043;-33
2022/03/05 08:53:54;;;;;;;0.20;0.20;;;;;;;19.55;34.53;101703.78;5121742;28;20043;-35
2022/03/05 08:56:21;;;;;;;0.20;0.20;;;;;;;19.53;34.33;101701.31;5118896;27;20466;-35
2022/03/05 08:58:47;;;;;;;0.20;0.20;;;;;;;19.54;34.68;101697.44;5121170;27;20073;-33
2022/03/05 09:01:12;;;;;;;0.20;0.20;;;;;;;19.52;34.66;101694.13;5117069;27;20078;-32
2022/03/05 09:03:38;;;;;;;0.20;0.20;;;;;;;19.53;34.46;101690.25;5117707;27;20193;-35
2022/03/05 09:06:04;;;;;;;0.22;0.22;;;;;;;19.53;34.37;101693.00;5119237;27;20051;-36
2022/03/05 09:08:30;;;;;;;0.20;0.20;;;;;;;19.54;34.70;101696.59;5114145;28;20127;-37
2022/03/05 09:10:56;;;;;;;0.20;0.20;;;;;;;19.53;34.46;101704.06;5117283;27;20362;-35
2022/03/05 09:13:21;;;;;;;0.20;0.20;;;;;;;19.52;34.72;101696.06;5125232;27;20056;-32
2022/03/05 09:15:47;;;;;;;0.20;0.20;;;;;;;19.52;34.39;101696.88;5118543;28;20039;-33
2022/03/05 09:18:12;;;;;;;0.20;0.20;;;;;;;19.53;34.39;101695.78;5097787;28;20406;-35
2022/03/05 09:20:38;;;;;;;0.20;0.20;;;;;;;19.52;34.38;101696.06;5119632;27;20324;-34
2022/03/05 09:23:04;;;;;;;0.20;0.20;;;;;;;19.52;34.67;101701.56;5116348;27;20129;-35
2022/03/05 09:25:30;;;;;;;0.20;0.20;;;;;;;19.53;34.65;101698.53;5122691;27;20050;-35
2022/03/05 09:27:55;;;;;;;0.20;0.20;;;;;;;19.52;34.67;101687.75;5120060;27;20093;-34
2022/03/05 09:30:21;;;;;;;0.20;0.20;;;;;;;19.51;34.54;101695.19;5118847;28;20043;-37
2022/03/05 09:32:47;;;;;;;0.20;0.20;;;;;;;19.52;34.42;101690.53;5115623;27;20047;-33
2022/03/05 09:35:12;;;;;;;0.20;0.20;;;;;;;19.53;34.48;101695.78;5124254;27;20054;-36
2022/03/05 09:37:38;;;;;;;0.20;0.20;;;;;;;19.53;34.57;101692.19;5120772;28;20059;-34
2022/03/05 09:40:10;;;;;;;0.20;0.20;;;;;;;19.51;34.65;101699.88;5102001;28;20054;-34
2022/03/05 09:42:36;;;;;;;0.20;0.20;;;;;;;19.50;34.47;101688.00;5122060;27;20170;-35
2022/03/05 09:45:03;;;;;;;0.20;0.20;;;;;;;19.50;34.51;101693.53;5128035;27;20046;-35
2022/03/05 09:47:29;;;;;;;0.20;0.20;;;;;;;19.50;34.43;101701.00;5121045;27;20083;-34
2022/03/05 09:49:55;;;;;;;0.20;0.20;;;;;;;19.53;34.39;101701.31;5122608;28;20409;-33
2022/03/05 09:52:20;;;;;;;0.20;0.20;;;;;;;19.50;34.59;101699.06;5116534;27;20055;-35
2022/03/05 09:54:46;;;;;;;0.20;0.20;;;;;;;19.49;34.41;101699.34;5118100;27;20035;-32
2022/03/05 09:57:13;;;;;;;0.20;0.20;;;;;;;19.51;34.43;101708.16;5102696;27;20089;-34
2022/03/05 09:59:39;;;;;;;0.20;0.20;;;;;;;19.50;34.68;101704.59;5114374;27;20070;-34
2022/03/05 10:02:07;;;;;;;0.20;0.20;;;;;;;19.51;34.42;101706.25;5104997;28;20129;-33
2022/03/05 10:04:33;;;;;;;0.20;0.20;;;;;;;19.50;34.52;101704.59;5106112;28;20054;-34
2022/03/05 10:07:16;;;;;;;0.20;0.20;;;;;;;19.50;34.34;101706.50;5120198;27;20051;-34
2022/03/05 10:09:44;;;;;;;0.20;0.20;;;;;;;19.49;34.76;101705.69;5102768;28;20397;-32
2022/03/05 10:12:31;;;;;;;0.20;0.20;;;;;;;19.50;34.61;101703.75;5101147;28;20050;-34
2022/03/05 10:15:17;;;;;;;0.20;0.20;;;;;;;19.49;34.50;101702.94;5107388;28;20048;-35
2022/03/05 10:17:48;;;;;;;0.20;0.20;;;;;;;19.50;34.52;101706.50;5103279;28;20558;-33
2022/03/05 10:20:13;;;;;;;0.20;0.20;;;;;;;19.49;34.40;101705.69;5098326;28;20043;-34
2022/03/05 10:23:04;;;;;;;0.20;0.20;;;;;;;19.49;34.38;101710.38;5118793;27;20050;-34
2022/03/05 10:25:34;;;;;;;0.20;0.20;;;;;;;19.50;34.38;101703.75;5106193;28;20046;-32
2022/03/05 10:28:04;;;;;;;0.20;0.20;;;;;;;19.50;34.57;101707.34;5105757;27;20061;-34
2022/03/05 10:30:40;;;;;;;0.20;0.20;;;;;;;19.49;34.59;101696.56;5118239;27;20099;-35
2022/03/05 10:33:06;;;;;;;0.20;0.20;;;;;;;19.50;34.71;101688.00;5093685;28;20461;-31
2022/03/05 10:35:33;;;;;;;0.20;0.20;;;;;;;19.48;34.77;101692.16;5120977;27;20505;-34
2022/03/05 10:37:58;;;;;;;0.20;0.20;;;;;;;19.48;34.68;101695.75;5101708;28;20474;-36
2022/03/05 10:40:34;;;;;;;0.20;0.20;;;;;;;19.49;34.78;101686.34;5102187;28;20054;-34
2022/03/05 10:43:02;;;;;;;0.20;0.20;;;;;;;19.48;34.79;101686.63;5094050;28;20089;-35
2022/03/05 10:45:29;;;;;;;0.20;0.20;;;;;;;19.49;34.84;101696.56;5101932;28;20478;-36
2022/03/05 10:47:57;;;;;;;0.20;0.20;;;;;;;19.48;34.48;101690.22;5116888;27;20091;-33
2022/03/05 10:50:24;;;;;;;0.10;0.10;;;;;;;19.49;34.79;101691.03;5101811;28;20331;-37
2022/03/05 10:52:56;;;;;;;0.20;0.20;;;;;;;19.48;34.75;101687.44;5099068;28;20039;-34
2022/03/05 10:55:24;;;;;;;0.20;0.20;;;;;;;19.47;34.49;101683.03;5115360;27;20042;-34
2022/03/05 10:58:13;;;;;;;0.20;0.20;;;;;;;19.48;34.45;101679.16;5118806;27;20207;-33
2022/03/05 11:00:40;;;;;;;0.20;0.20;;;;;;;19.47;34.66;101677.50;5101477;28;20464;-35
2022/03/05 11:03:06;;;;;;;0.20;0.20;;;;;;;19.48;34.50;101670.88;5123729;27;20074;-35
2022/03/05 11:05:33;;;;;;;0.20;0.20;;;;;;;19.49;34.70;101671.72;5119540;27;20373;-35
2022/03/05 11:07:59;;;;;;;0.20;0.20;;;;;;;19.46;34.47;101673.06;5099115;28;20478;-31
2022/03/05 11:10:27;;;;;;;0.10;0.10;;;;;;;19.48;34.60;101675.56;5116929;27;20097;-33
2022/03/05 11:12:56;;;;;;;0.20;0.20;;;;;;;19.47;34.71;101679.41;5095029;27;20046;-34
2022/03/05 11:15:23;;;;;;;0.20;0.20;;;;;;;19.47;34.60;101673.88;5078348;28;20119;-35
2022/03/05 11:17:49;;;;;;;0.20;0.20;;;;;;;19.46;34.73;101675.00;5094768;28;20097;-35
2022/03/05 11:20:15;;;;;;;0.20;0.20;;;;;;;19.46;34.55;101675.81;5118827;28;20504;-34
2022/03/05 11:22:42;;;;;;;0.20;0.20;;;;;;;19.46;34.69;101672.22;5114415;27;20082;-37
2022/03/05 11:25:12;;;;;;;0.20;0.20;;;;;;;19.46;34.56;101677.75;5104215;28;20102;-34
2022/03/05 11:27:37;;;;;;;0.20;0.20;;;;;;;19.47;34.61;101676.66;5119977;27;20425;-37
2022/03/05 11:30:05;;;;;;;0.20;0.20;;;;;;;19.46;34.83;101680.50;5114270;27;20202;-37
2022/03/05 11:32:34;;;;;;;0.20;0.20;;;;;;;19.45;34.62;101674.16;5092548;28;20044;-36
2022/03/05 11:34:59;;;;;;;;;;;;;;;19.46;34.58;101678.59;5102877;28;20083;-36
2022/03/05 11:37:33;;;;;;;0.20;0.20;;;;;;;19.45;34.77;101671.41;5103167;28;20022;-35
2022/03/05 11:40:00;;;;;;;0.20;0.20;;;;;;;19.44;34.73;101669.75;5115905;27;20555;-33
2022/03/05 11:42:27;;;;;;;0.20;0.20;;;;;;;19.44;34.80;101668.91;5100067;28;20505;-33
2022/03/05 11:44:53;;;;;;;0.20;0.20;;;;;;;19.47;34.51;101665.59;5098548;28;20119;-38
2022/03/05 11:47:22;;;;;;;0.20;0.20;;;;;;;19.46;34.69;101663.94;5114117;27;20043;-34
2022/03/05 11:55:24;;;;;;;0.20;0.20;;;;;;;19.45;34.81;101656.75;5171015;27;20167;-26
2022/03/05 12:00:31;;;;;;;0.20;0.20;;;;;;;19.46;34.64;101650.13;5175308;27;20124;-26
2022/03/05 12:02:58;;;;;;;0.20;0.20;;;;;;;19.45;34.77;101634.66;5109796;27;20039;-26
2022/03/05 12:08:37;;;;;;;0.20;0.20;;;;;;;19.45;34.83;101640.19;5170258;27;20128;-31
2022/03/05 12:11:20;;;;;;;0.20;0.20;;;;;;;19.46;34.59;101633.56;5152416;27;20054;-32
2022/03/05 12:13:50;;;;;;;0.20;0.20;;;;;;;19.45;34.52;101634.66;5117303;27;20039;-31
2022/03/05 12:16:19;;;;;;;0.20;0.20;;;;;;;19.45;34.75;101638.25;5157776;27;20500;-32
2022/03/05 12:18:45;;;;;;;0.20;0.20;;;;;;;19.45;34.55;101635.47;5139576;27;20077;-32
2022/03/05 12:21:11;;;;;;;0.20;0.20;;;;;;;19.43;34.92;101631.31;5144063;27;20297;-34
2022/03/05 12:23:37;;;;;;;0.20;0.20;;;;;;;19.45;34.51;101634.66;5133396;27;20316;-30
2022/03/05 12:26:04;;;;;;;0.20;0.20;;;;;;;19.44;34.71;101624.72;5126821;27;20205;-32
2022/03/05 12:28:40;;;;;;;0.20;0.20;;;;;;;19.44;34.86;101635.75;5110995;27;20497;-32
2022/03/05 12:31:05;;;;;;;0.20;0.20;;;;;;;19.44;34.70;101627.47;5146000;27;20089;-34
2022/03/05 12:33:32;;;;;;;0.20;0.20;;;;;;;19.44;34.81;101622.78;5144627;27;20039;-31
2022/03/05 12:35:58;;;;;;;0.20;0.20;;;;;;;19.45;34.78;101629.13;5145094;27;20057;-33
2022/03/05 12:38:24;;;;;;;0.20;0.20;;;;;;;19.45;34.83;101629.13;5152863;27;20047;-35
2022/03/05 12:40:50;;;;;;;0.20;0.20;;;;;;;19.45;34.88;101627.19;5147602;27;20139;-31
2022/03/05 12:43:16;;;;;;;0.20;0.20;;;;;;;19.45;34.86;101624.44;5129686;27;20261;-31
2022/03/05 12:45:43;;;;;;;0.20;0.20;;;;;;;19.44;34.62;101621.94;5143233;27;20387;-35
2022/03/05 12:48:12;;;;;;;0.20;0.20;;;;;;;19.45;34.70;101627.19;5112610;27;20069;-32
2022/03/05 12:50:40;;;;;;;0.20;0.20;;;;;;;19.43;34.69;101625.78;5112544;27;20290;-32
2022/03/05 12:53:11;;;;;;;0.20;0.20;;;;;;;19.43;34.96;101614.75;5150791;27;20050;-31
2022/03/05 12:55:57;;;;;;;0.20;0.20;;;;;;;19.44;34.65;101621.94;5110556;27;20042;-31
2022/03/05 12:58:25;;;;;;;0.20;0.20;;;;;;;19.43;34.90;101623.88;5116179;27;20047;-31
2022/03/05 13:00:52;;;;;;;0.20;0.20;;;;;;;19.43;34.69;101623.03;5124275;27;20081;-31
2022/03/05 13:03:19;;;;;;;0.20;0.20;;;;;;;19.44;34.80;101622.78;5126492;27;20050;-32
2022/03/05 13:05:47;;;;;;;0.20;0.20;;;;;;;19.44;34.73;101621.94;5130643;27;20091;-32
2022/03/05 13:08:21;;;;;;;0.20;0.20;;;;;;;19.43;34.71;101618.34;5111527;27;20085;-31
2022/03/05 13:10:58;;;;;;;0.20;0.20;;;;;;;19.43;34.82;101621.13;5124831;27;20090;-31
2022/03/05 13:13:31;;;;;;;0.20;0.20;;;;;;;19.43;34.74;101610.06;5147329;27;20039;-31
2022/03/05 13:15:57;;;;;;;0.20;0.20;;;;;;;19.44;34.36;101617.25;5145883;27;20062;-37
2022/03/05 13:18:23;;;;;;;0.20;0.20;;;;;;;19.44;34.64;101620.00;5117948;27;20047;-34
2022/03/05 13:20:48;;;;;;;0.20;0.20;;;;;;;19.43;34.83;101618.34;5126903;27;20062;-35
2022/03/05 13:23:16;;;;;;;0.20;0.20;;;;;;;19.45;34.76;101607.88;5134315;27;20102;-35
2022/03/05 13:25:46;;;;;;;0.20;0.20;;;;;;;19.43;34.83;101604.56;5128751;27;20038;-35
2022/03/05 13:28:15;;;;;;;0.20;0.20;;;;;;;19.43;34.66;101615.59;5092848;27;20043;-36
2022/03/05 13:30:42;;;;;;;;;;;;;;;19.44;34.95;101605.38;5097765;27;20458;-34
2022/03/05 13:33:07;;;;;;;0.20;0.20;;;;;;;19.44;34.64;101608.13;5116913;27;20435;-34
2022/03/05 13:35:42;;;;;;;0.20;0.20;;;;;;;19.43;34.91;101610.06;5132336;27;20039;-33
2022/03/05 13:38:23;;;;;;;0.20;0.20;;;;;;;19.42;34.61;101607.56;5123618;27;20043;-35
2022/03/05 13:40:49;;;;;;;0.20;0.20;;;;;;;19.42;34.73;101608.38;5113506;27;20255;-35
2022/03/05 13:43:20;;;;;;;0.20;0.20;;;;;;;19.44;34.80;101610.91;5135047;27;20089;-38
2022/03/05 13:45:46;;;;;;;0.20;0.20;;;;;;;19.43;34.91;101611.97;5099275;27;20050;-35
2022/03/05 13:48:16;;;;;;;0.20;0.20;;;;;;;19.43;34.82;101609.22;5136271;27;20049;-38
2022/03/05 13:50:41;;;;;;;0.20;0.20;;;;;;;19.44;34.97;101605.38;5110490;27;20043;-34
2022/03/05 13:53:07;;;;;;;0.20;0.20;;;;;;;19.43;34.74;101606.44;5124568;27;20414;-36
2022/03/05 13:55:34;;;;;;;0.20;0.20;;;;;;;19.43;34.71;101609.22;5135664;27;20464;-37
2022/03/05 13:57:59;;;;;;;0.20;0.20;;;;;;;19.44;34.97;101600.69;5112166;27;20089;-35
2022/03/05 14:00:31;;;;;;;0.20;0.20;;;;;;;19.44;34.74;101608.13;5134100;27;20534;-33
2022/03/05 14:02:57;;;;;;;0.20;0.20;;;;;;;19.44;34.69;101600.69;5134220;27;20043;-35
2022/03/05 14:05:29;;;;;;;0.30;0.30;;;;;;;19.43;34.77;101604.56;5114472;27;20426;-36
2022/03/05 14:07:57;;;;;;;0.20;0.20;;;;;;;19.44;34.68;101605.38;5132855;27;20107;-38
2022/03/05 14:10:23;;;;;;;0.20;0.20;;;;;;;19.45;34.68;101609.78;5114536;27;20066;-37
2022/03/05 14:12:54;;;;;;;0.20;0.20;;;;;;;19.44;34.73;101605.38;5132224;27;20074;-37
2022/03/05 14:15:28;;;;;;;0.20;0.20;;;;;;;19.44;34.92;101599.84;5135852;27;20042;-36
2022/03/05 14:18:10;;;;;;;0.20;0.20;;;;;;;19.44;34.81;101597.09;5130861;27;20107;-37
2022/03/05 14:20:45;;;;;;;0.20;0.20;;;;;;;19.44;34.86;101605.38;5132554;27;20608;-37
2022/03/05 14:23:20;;;;;;;0.20;0.20;;;;;;;19.43;34.98;101607.31;5110524;27;20486;-37
2022/03/05 14:25:48;;;;;;;0.20;0.20;;;;;;;19.43;34.88;101601.78;5130805;27;20513;-38
2022/03/05 14:28:20;;;;;;;0.20;0.20;;;;;;;19.43;34.95;101604.56;5130923;27;20057;-35
2022/03/05 14:30:46;;;;;;;0.20;0.20;;;;;;;19.42;34.94;101608.38;5113766;27;20070;-36
2022/03/05 14:33:12;;;;;;;0.22;0.22;;;;;;;19.44;34.62;101602.63;5095414;27;20058;-32
2022/03/05 14:35:38;;;;;;;0.30;0.30;;;;;;;19.43;34.79;101607.31;5129114;27;20054;-35
2022/03/05 14:38:05;;;;;;;0.20;0.20;;;;;;;19.44;34.78;101605.38;5110166;27;20101;-33
2022/03/05 14:40:32;;;;;;;0.20;0.20;;;;;;;19.43;34.96;101598.16;5111764;27;20085;-35
2022/03/05 14:42:59;;;;;;;0.20;0.20;;;;;;;19.44;35.00;101602.63;5114688;27;20082;-36
2022/03/05 14:45:30;;;;;;;0.20;0.20;;;;;;;19.43;34.90;101595.41;5133894;27;20483;-35
2022/03/05 14:47:55;;;;;;;0.20;0.20;;;;;;;19.44;34.68;101599.84;5129475;27;20051;-34
2022/03/05 14:50:23;;;;;;;0.20;0.20;;;;;;;19.43;34.74;101603.69;5126520;27;20413;-33
2022/03/05 14:52:49;;;;;;;0.20;0.20;;;;;;;19.43;34.75;101598.16;5109365;27;20053;-38
2022/03/05 14:55:15;;;;;;;0.20;0.20;;;;;;;19.43;34.88;101600.94;5131655;27;20063;-33
2022/03/05 14:57:59;;;;;;;0.20;0.20;;;;;;;19.43;34.80;101596.25;5129982;27;20052;-35
2022/03/05 15:00:27;;;;;;;0.20;0.20;;;;;;;19.43;34.88;101598.16;5132059;27;20407;-37
2022/03/05 15:02:59;;;;;;;0.20;0.20;;;;;;;19.42;34.92;101602.03;5126272;27;20499;-33
2022/03/05 15:05:25;;;;;;;0.20;0.20;;;;;;;19.41;34.69;101589.31;5128739;27;20140;-34
2022/03/05 15:07:51;;;;;;;0.20;0.20;;;;;;;19.43;34.68;101600.94;5127898;27;20760;-36
2022/03/05 15:10:16;;;;;;;0.20;0.20;;;;;;;19.42;34.74;101594.56;5129484;27;20096;-38
2022/03/05 15:12:42;;;;;;;0.20;0.20;;;;;;;19.42;35.08;101593.75;5129229;27;20473;-35
2022/03/05 15:15:08;;;;;;;0.20;0.20;;;;;;;19.43;34.77;101595.41;5110479;27;20051;-35
2022/03/05 15:17:34;;;;;;;0.20;0.20;;;;;;;19.41;34.64;101590.16;5113153;27;20098;-35
2022/03/05 15:20:00;;;;;;;0.20;0.20;;;;;;;19.41;34.86;101584.63;5105291;27;20055;-34
2022/03/05 15:22:25;;;;;;;0.20;0.20;;;;;;;19.42;34.78;101582.69;5102630;27;20050;-35
2022/03/05 15:24:51;;;;;;;0.20;0.20;;;;;;;19.43;34.81;101576.06;5130483;27;20049;-35
2022/03/05 15:27:17;;;;;;;0.20;0.20;;;;;;;19.41;35.00;101579.09;5131228;27;20043;-35
2022/03/05 15:29:43;;;;;;;0.20;0.20;;;;;;;19.42;34.92;101574.41;5133519;27;20058;-37
2022/03/05 15:32:09;;;;;;;0.20;0.20;;;;;;;19.42;34.71;101578.00;5130502;27;20078;-38
2022/03/05 15:34:34;;;;;;;0.20;0.20;;;;;;;19.42;34.77;101580.75;5116140;27;20039;-38
2022/03/05 15:37:00;;;;;;;0.20;0.20;;;;;;;19.43;35.08;101576.06;5130688;27;20046;-35
2022/03/05 15:39:26;;;;;;;0.20;0.20;;;;;;;19.42;35.00;101577.16;5111296;28;20296;-37
2022/03/05 15:41:51;;;;;;;0.20;0.20;;;;;;;19.43;35.00;101578.84;5123264;27;20513;-36
2022/03/05 15:44:19;;;;;;;0.20;0.20;;;;;;;19.43;34.88;101573.31;5130828;27;20051;-36
2022/03/05 15:46:45;;;;;;;0.10;0.10;;;;;;;19.42;35.03;101578.00;5084940;27;20432;-33
2022/03/05 15:49:11;;;;;;;0.20;0.20;;;;;;;19.42;34.82;101580.75;5134325;27;20039;-35
2022/03/05 15:51:38;;;;;;;0.20;0.20;;;;;;;19.42;35.02;101580.75;5127860;27;20054;-37
2022/03/05 15:54:04;;;;;;;0.20;0.20;;;;;;;19.44;34.87;101580.50;5113186;27;20413;-35
2022/03/05 15:56:33;;;;;;;0.20;0.20;;;;;;;19.43;34.73;101578.84;5110792;27;20066;-33
2022/03/05 15:59:02;;;;;;;0.20;0.20;;;;;;;19.42;34.83;101575.25;5130153;27;20057;-34
2022/03/05 16:01:27;;;;;;;0.20;0.20;;;;;;;19.45;34.73;101576.66;5126492;27;20075;-35
2022/03/05 16:03:53;;;;;;;0.20;0.20;;;;;;;19.45;34.76;101579.41;5108118;27;20089;-34
2022/03/05 16:06:19;;;;;;;0.20;0.20;;;;;;;19.44;34.93;101581.34;5127191;27;20047;-34
2022/03/05 16:08:45;;;;;;;0.20;0.20;;;;;;;19.44;34.89;101583.28;5127152;27;20039;-36
2022/03/05 16:11:11;;;;;;;0.20;0.20;;;;;;;19.44;34.99;101575.00;5127797;27;20047;-36
2022/03/05 16:13:36;;;;;;;0.20;0.20;;;;;;;19.44;34.93;101577.75;5111601;27;20058;-33
2022/03/05 16:16:02;;;;;;;0.20;0.20;;;;;;;19.44;34.76;101588.81;5129487;27;20065;-34
2022/03/05 16:18:28;;;;;;;0.20;0.20;;;;;;;19.44;34.83;101580.50;5127657;27;20042;-34
2022/03/05 16:20:54;;;;;;;0.20;0.20;;;;;;;19.43;34.82;101584.34;5126255;27;20418;-34
2022/03/05 16:23:20;;;;;;;0.20;0.20;;;;;;;19.44;34.82;101586.88;5119794;27;20040;-34
2022/03/05 16:25:45;;;;;;;0.20;0.20;;;;;;;19.45;34.96;101590.47;5127091;27;20470;-34
2022/03/05 16:28:11;;;;;;;0.20;0.20;;;;;;;19.44;34.88;101583.28;5136765;27;20086;-35
2022/03/05 16:30:38;;;;;;;0.20;0.20;;;;;;;19.45;35.08;101582.16;5130224;27;20043;-37
2022/03/05 16:33:04;;;;;;;0.20;0.20;;;;;;;19.44;35.05;101578.59;5128526;27;20088;-34
2022/03/05 16:35:32;;;;;;;0.20;0.20;;;;;;;19.43;34.98;101576.94;5129088;27;20042;-33
2022/03/05 16:37:58;;;;;;;0.10;0.10;;;;;;;19.45;34.90;101582.16;5129251;27;20097;-35
2022/03/05 16:40:24;;;;;;;0.20;0.20;;;;;;;19.43;34.94;101582.44;5110043;27;20039;-36
2022/03/05 16:42:52;;;;;;;0.20;0.20;;;;;;;19.43;35.10;101578.84;5122305;27;20063;-38
2022/03/05 16:45:18;;;;;;;0.20;0.20;;;;;;;19.43;35.10;101576.94;5112330;27;20083;-36
2022/03/05 16:47:48;;;;;;;0.20;0.20;;;;;;;19.44;34.96;101581.34;5126788;27;20078;-33
2022/03/05 16:50:13;;;;;;;0.20;0.20;;;;;;;19.44;35.11;101583.28;5094903;27;20106;-34
2022/03/05 16:52:39;;;;;;;0.28;0.28;;;;;;;19.44;34.86;101583.28;5109813;27;20051;-36
2022/03/05 16:55:07;;;;;;;0.20;0.20;;;;;;;19.44;35.05;101588.81;5132778;27;20054;-33
2022/03/05 16:57:33;;;;;;;0.20;0.20;;;;;;;19.43;34.97;101590.75;5101145;27;20043;-33
2022/03/05 17:00:02;;;;;;;0.20;0.20;;;;;;;19.43;34.79;101584.34;5131271;27;20283;-33
2022/03/05 17:02:28;;;;;;;0.20;0.20;;;;;;;19.43;34.90;101584.34;5126652;27;20043;-34
2022/03/05 17:04:55;;;;;;;0.20;0.20;;;;;;;19.43;34.88;101590.75;5116207;27;20035;-34
2022/03/05 17:07:21;;;;;;;0.20;0.20;;;;;;;19.43;35.05;101590.75;5129217;27;20068;-35
2022/03/05 17:10:10;;;;;;;0.20;0.20;;;;;;;19.44;35.18;101597.09;5116193;27;20043;-38
2022/03/05 17:12:37;;;;;;;0.20;0.20;;;;;;;19.44;34.94;101599.84;5113555;27;20070;-34
2022/03/05 17:15:03;;;;;;;0.20;0.20;;;;;;;19.44;35.13;101597.09;5108933;27;20039;-34